sensor_id;sensor_type;location;lat;lon;timestamp;temperature;humidity
36790;DHT22;22740;52.182;8.780;2023-04-30T00:02:11;8.10;99.90
36790;DHT22;22740;52.182;8.780;2023-04-30T00:08:25;8.00;99.90
36790;DHT22;22740;52.182;8.780;2023-04-30T00:14:34;8.20;99.90
36790;DHT22;22740;52.182;8.780;2023-04-30T00:20:42;8.20;99.90
36790;DHT22;22740;52.182;8.780;2023-04-30T00:26:50;8.10;99.90
36790;DHT22;22740;52.182;8.780;2023-04-30T00:32:58;7.90;99.90
36790;DHT22;22740;52.182;8.780;2023-04-30T00:39:06;7.70;99.90
36790;DHT22;22740;52.182;8.780;2023-04-30T00:45:14;8.00;99.90
36790;DHT22;22740;52.182;8.780;2023-04-30T00:51:25;7.90;99.90
36790;DHT22;22740;52.182;8.780;2023-04-30T00:57:34;7.70;99.90
36790;DHT22;22740;52.182;8.780;2023-04-30T01:03:43;7.40;99.90
36790;DHT22;22740;52.182;8.780;2023-04-30T01:09:52;7.30;99.90
36790;DHT22;22740;52.182;8.780;2023-04-30T01:16:18;7.40;99.90
36790;DHT22;22740;52.182;8.780;2023-04-30T01:28:59;7.40;99.90
36790;DHT22;22740;52.182;8.780;2023-04-30T01:35:10;7.60;99.90
36790;DHT22;22740;52.182;8.780;2023-04-30T01:41:44;7.60;99.90
36790;DHT22;22740;52.182;8.780;2023-04-30T01:54:25;7.20;99.90
36790;DHT22;22740;52.182;8.780;2023-04-30T02:00:35;7.20;99.90
36790;DHT22;22740;52.182;8.780;2023-04-30T02:06:43;7.40;99.90
36790;DHT22;22740;52.182;8.780;2023-04-30T02:13:00;7.50;99.90
36790;DHT22;22740;52.182;8.780;2023-04-30T02:19:09;7.10;99.90
36790;DHT22;22740;52.182;8.780;2023-04-30T02:25:18;7.00;99.90
36790;DHT22;22740;52.182;8.780;2023-04-30T02:31:26;6.90;99.90
36790;DHT22;22740;52.182;8.780;2023-04-30T02:37:34;7.00;99.90
36790;DHT22;22740;52.182;8.780;2023-04-30T02:43:42;7.10;99.90
36790;DHT22;22740;52.182;8.780;2023-04-30T02:49:50;7.10;99.90
36790;DHT22;22740;52.182;8.780;2023-04-30T02:55:58;6.90;99.90
36790;DHT22;22740;52.182;8.780;2023-04-30T03:02:07;6.90;99.90
36790;DHT22;22740;52.182;8.780;2023-04-30T03:08:21;6.80;99.90
36790;DHT22;22740;52.182;8.780;2023-04-30T03:14:30;6.40;99.90
36790;DHT22;22740;52.182;8.780;2023-04-30T03:20:38;6.50;99.90
36790;DHT22;22740;52.182;8.780;2023-04-30T03:26:46;6.50;99.90
36790;DHT22;22740;52.182;8.780;2023-04-30T03:32:54;6.60;99.90
36790;DHT22;22740;52.182;8.780;2023-04-30T03:39:02;6.30;99.90
36790;DHT22;22740;52.182;8.780;2023-04-30T03:45:11;6.30;99.90
36790;DHT22;22740;52.182;8.780;2023-04-30T03:51:21;6.30;99.90
36790;DHT22;22740;52.182;8.780;2023-04-30T03:57:30;6.30;99.90
36790;DHT22;22740;52.182;8.780;2023-04-30T04:03:39;6.30;99.90
36790;DHT22;22740;52.182;8.780;2023-04-30T04:09:48;5.90;99.90
36790;DHT22;22740;52.182;8.780;2023-04-30T04:15:56;6.10;99.90
36790;DHT22;22740;52.182;8.780;2023-04-30T04:22:06;6.30;99.90
36790;DHT22;22740;52.182;8.780;2023-04-30T04:28:15;6.20;99.90
36790;DHT22;22740;52.182;8.780;2023-04-30T04:34:24;6.40;99.90
36790;DHT22;22740;52.182;8.780;2023-04-30T04:40:32;6.60;99.90
36790;DHT22;22740;52.182;8.780;2023-04-30T04:46:42;6.90;99.90
36790;DHT22;22740;52.182;8.780;2023-04-30T04:52:51;7.40;99.90
36790;DHT22;22740;52.182;8.780;2023-04-30T04:58:59;10.50;99.90
36790;DHT22;22740;52.182;8.780;2023-04-30T05:05:14;13.90;99.90
36790;DHT22;22740;52.182;8.780;2023-04-30T05:11:30;15.00;99.90
36790;DHT22;22740;52.182;8.780;2023-04-30T05:17:38;12.40;99.90
36790;DHT22;22740;52.182;8.780;2023-04-30T05:23:46;12.00;99.90
36790;DHT22;22740;52.182;8.780;2023-04-30T05:30:01;11.30;99.90
36790;DHT22;22740;52.182;8.780;2023-04-30T05:36:10;10.40;99.90
36790;DHT22;22740;52.182;8.780;2023-04-30T05:42:19;10.80;99.90
36790;DHT22;22740;52.182;8.780;2023-04-30T05:48:27;10.90;99.90
36790;DHT22;22740;52.182;8.780;2023-04-30T05:54:35;11.80;99.90
36790;DHT22;22740;52.182;8.780;2023-04-30T06:00:44;12.20;99.90
36790;DHT22;22740;52.182;8.780;2023-04-30T06:07:02;10.80;99.90
36790;DHT22;22740;52.182;8.780;2023-04-30T06:13:11;8.70;99.90
36790;DHT22;22740;52.182;8.780;2023-04-30T06:19:20;8.90;99.90
36790;DHT22;22740;52.182;8.780;2023-04-30T06:25:28;9.00;99.90
36790;DHT22;22740;52.182;8.780;2023-04-30T06:31:36;9.20;99.90
36790;DHT22;22740;52.182;8.780;2023-04-30T06:37:44;8.70;99.90
36790;DHT22;22740;52.182;8.780;2023-04-30T06:43:52;9.70;99.90
36790;DHT22;22740;52.182;8.780;2023-04-30T06:50:00;9.20;99.90
36790;DHT22;22740;52.182;8.780;2023-04-30T06:56:09;9.30;99.90
36790;DHT22;22740;52.182;8.780;2023-04-30T07:02:17;9.40;99.90
36790;DHT22;22740;52.182;8.780;2023-04-30T07:08:25;9.20;99.90
36790;DHT22;22740;52.182;8.780;2023-04-30T07:14:40;9.20;99.90
36790;DHT22;22740;52.182;8.780;2023-04-30T07:20:49;9.30;99.90
36790;DHT22;22740;52.182;8.780;2023-04-30T07:26:58;9.40;99.90
36790;DHT22;22740;52.182;8.780;2023-04-30T07:33:10;9.50;99.90
36790;DHT22;22740;52.182;8.780;2023-04-30T07:39:19;9.60;99.90
36790;DHT22;22740;52.182;8.780;2023-04-30T07:45:34;10.00;99.90
36790;DHT22;22740;52.182;8.780;2023-04-30T07:51:43;9.90;99.90
36790;DHT22;22740;52.182;8.780;2023-04-30T07:57:51;9.50;99.90
36790;DHT22;22740;52.182;8.780;2023-04-30T08:03:59;9.70;99.90
36790;DHT22;22740;52.182;8.780;2023-04-30T08:10:07;10.50;99.90
36790;DHT22;22740;52.182;8.780;2023-04-30T08:16:23;10.20;99.90
36790;DHT22;22740;52.182;8.780;2023-04-30T08:22:31;10.50;99.90
36790;DHT22;22740;52.182;8.780;2023-04-30T08:28:40;10.50;99.90
36790;DHT22;22740;52.182;8.780;2023-04-30T08:34:48;10.60;99.90
36790;DHT22;22740;52.182;8.780;2023-04-30T08:41:16;10.50;99.90
36790;DHT22;22740;52.182;8.780;2023-04-30T08:47:27;11.20;99.90
36790;DHT22;22740;52.182;8.780;2023-04-30T08:53:36;11.40;99.90
36790;DHT22;22740;52.182;8.780;2023-04-30T08:59:45;11.60;99.90
36790;DHT22;22740;52.182;8.780;2023-04-30T09:05:54;11.70;99.90
36790;DHT22;22740;52.182;8.780;2023-04-30T09:12:13;11.40;99.90
36790;DHT22;22740;52.182;8.780;2023-04-30T09:18:22;11.30;99.90
36790;DHT22;22740;52.182;8.780;2023-04-30T09:24:45;12.00;99.90
36790;DHT22;22740;52.182;8.780;2023-04-30T09:30:58;12.10;99.90
36790;DHT22;22740;52.182;8.780;2023-04-30T09:37:07;12.30;99.90
36790;DHT22;22740;52.182;8.780;2023-04-30T09:43:15;12.90;99.90
36790;DHT22;22740;52.182;8.780;2023-04-30T09:49:24;13.50;99.90
36790;DHT22;22740;52.182;8.780;2023-04-30T09:55:34;13.10;99.90
36790;DHT22;22740;52.182;8.780;2023-04-30T10:01:43;13.50;99.90
36790;DHT22;22740;52.182;8.780;2023-04-30T10:07:45;13.80;99.90
36790;DHT22;22740;52.182;8.780;2023-04-30T10:20:02;13.60;99.90
36790;DHT22;22740;52.182;8.780;2023-04-30T10:26:10;14.70;99.90
36790;DHT22;22740;52.182;8.780;2023-04-30T10:32:14;14.20;99.90
36790;DHT22;22740;52.182;8.780;2023-04-30T10:38:20;14.10;99.90
36790;DHT22;22740;52.182;8.780;2023-04-30T10:44:24;14.10;99.90
36790;DHT22;22740;52.182;8.780;2023-04-30T10:50:28;13.70;99.90
36790;DHT22;22740;52.182;8.780;2023-04-30T10:56:31;14.10;99.90
36790;DHT22;22740;52.182;8.780;2023-04-30T11:02:45;15.30;99.90
36790;DHT22;22740;52.182;8.780;2023-04-30T11:08:49;15.40;99.90
36790;DHT22;22740;52.182;8.780;2023-04-30T11:14:51;15.30;99.90
36790;DHT22;22740;52.182;8.780;2023-04-30T11:20:53;14.70;99.90
36790;DHT22;22740;52.182;8.780;2023-04-30T11:27:04;15.00;99.90
36790;DHT22;22740;52.182;8.780;2023-04-30T11:33:06;14.80;99.90
36790;DHT22;22740;52.182;8.780;2023-04-30T11:39:10;15.10;99.90
36790;DHT22;22740;52.182;8.780;2023-04-30T11:45:14;14.80;99.90
36790;DHT22;22740;52.182;8.780;2023-04-30T11:51:23;15.10;99.90
36790;DHT22;22740;52.182;8.780;2023-04-30T11:57:25;14.80;99.90
36790;DHT22;22740;52.182;8.780;2023-04-30T12:03:27;15.10;99.90
36790;DHT22;22740;52.182;8.780;2023-04-30T12:09:30;14.50;99.90
36790;DHT22;22740;52.182;8.780;2023-04-30T12:15:31;15.00;99.90
36790;DHT22;22740;52.182;8.780;2023-04-30T12:21:35;15.50;99.90
36790;DHT22;22740;52.182;8.780;2023-04-30T12:27:37;15.10;99.90
36790;DHT22;22740;52.182;8.780;2023-04-30T12:33:39;14.80;99.90
36790;DHT22;22740;52.182;8.780;2023-04-30T12:39:41;15.10;99.90
36790;DHT22;22740;52.182;8.780;2023-04-30T12:58:12;15.10;99.90
36790;DHT22;22740;52.182;8.780;2023-04-30T13:04:14;15.20;99.90
36790;DHT22;22740;52.182;8.780;2023-04-30T13:10:16;15.60;99.90
36790;DHT22;22740;52.182;8.780;2023-04-30T13:16:19;15.60;99.90
36790;DHT22;22740;52.182;8.780;2023-04-30T13:22:20;14.90;99.90
36790;DHT22;22740;52.182;8.780;2023-04-30T13:28:24;14.60;99.90
36790;DHT22;22740;52.182;8.780;2023-04-30T13:34:26;15.20;99.90
36790;DHT22;22740;52.182;8.780;2023-04-30T13:40:28;15.10;99.90
36790;DHT22;22740;52.182;8.780;2023-04-30T13:46:30;15.10;99.90
36790;DHT22;22740;52.182;8.780;2023-04-30T13:52:31;15.00;99.90
36790;DHT22;22740;52.182;8.780;2023-04-30T13:58:33;15.50;99.90
36790;DHT22;22740;52.182;8.780;2023-04-30T14:04:35;15.40;99.90
36790;DHT22;22740;52.182;8.780;2023-04-30T14:10:38;16.10;99.90
36790;DHT22;22740;52.182;8.780;2023-04-30T14:16:40;15.90;99.90
36790;DHT22;22740;52.182;8.780;2023-04-30T14:22:43;16.00;99.90
36790;DHT22;22740;52.182;8.780;2023-04-30T14:28:44;15.70;99.90
36790;DHT22;22740;52.182;8.780;2023-04-30T14:34:46;16.00;99.90
36790;DHT22;22740;52.182;8.780;2023-04-30T14:40:48;16.30;99.90
36790;DHT22;22740;52.182;8.780;2023-04-30T14:46:50;15.70;99.90
36790;DHT22;22740;52.182;8.780;2023-04-30T14:52:52;15.90;99.90
36790;DHT22;22740;52.182;8.780;2023-04-30T14:58:54;16.20;99.90
36790;DHT22;22740;52.182;8.780;2023-04-30T15:04:56;16.60;99.90
36790;DHT22;22740;52.182;8.780;2023-04-30T15:10:59;16.00;99.90
36790;DHT22;22740;52.182;8.780;2023-04-30T15:17:01;16.20;99.90
36790;DHT22;22740;52.182;8.780;2023-04-30T15:23:03;15.90;99.90
36790;DHT22;22740;52.182;8.780;2023-04-30T15:29:04;16.40;99.90
36790;DHT22;22740;52.182;8.780;2023-04-30T15:35:07;15.40;99.90
36790;DHT22;22740;52.182;8.780;2023-04-30T15:41:09;15.40;99.90
36790;DHT22;22740;52.182;8.780;2023-04-30T15:47:11;15.90;99.90
36790;DHT22;22740;52.182;8.780;2023-04-30T15:53:13;15.40;99.90
36790;DHT22;22740;52.182;8.780;2023-04-30T15:59:14;15.60;99.90
36790;DHT22;22740;52.182;8.780;2023-04-30T16:05:20;15.90;99.90
36790;DHT22;22740;52.182;8.780;2023-04-30T16:11:21;16.10;99.90
36790;DHT22;22740;52.182;8.780;2023-04-30T16:17:24;16.00;99.90
36790;DHT22;22740;52.182;8.780;2023-04-30T16:23:26;15.50;99.90
36790;DHT22;22740;52.182;8.780;2023-04-30T16:29:28;15.50;99.90
36790;DHT22;22740;52.182;8.780;2023-04-30T16:35:30;16.60;99.90
36790;DHT22;22740;52.182;8.780;2023-04-30T16:41:32;15.80;99.90
36790;DHT22;22740;52.182;8.780;2023-04-30T16:47:34;16.00;99.90
36790;DHT22;22740;52.182;8.780;2023-04-30T16:53:36;16.40;99.90
36790;DHT22;22740;52.182;8.780;2023-04-30T16:59:38;15.50;99.90
36790;DHT22;22740;52.182;8.780;2023-04-30T17:05:39;15.50;99.90
36790;DHT22;22740;52.182;8.780;2023-04-30T17:11:45;16.00;99.90
36790;DHT22;22740;52.182;8.780;2023-04-30T17:17:47;15.60;99.90
36790;DHT22;22740;52.182;8.780;2023-04-30T17:23:49;15.90;99.90
36790;DHT22;22740;52.182;8.780;2023-04-30T17:29:51;15.80;99.90
36790;DHT22;22740;52.182;8.780;2023-04-30T17:35:53;15.90;99.90
36790;DHT22;22740;52.182;8.780;2023-04-30T17:41:55;16.00;99.90
36790;DHT22;22740;52.182;8.780;2023-04-30T17:47:57;14.80;99.90
36790;DHT22;22740;52.182;8.780;2023-04-30T17:53:59;14.70;99.90
36790;DHT22;22740;52.182;8.780;2023-04-30T18:00:00;14.50;99.90
36790;DHT22;22740;52.182;8.780;2023-04-30T18:06:02;13.80;99.90
36790;DHT22;22740;52.182;8.780;2023-04-30T18:12:04;13.40;99.90
36790;DHT22;22740;52.182;8.780;2023-04-30T18:18:06;13.10;99.90
36790;DHT22;22740;52.182;8.780;2023-04-30T18:24:08;13.10;99.90
36790;DHT22;22740;52.182;8.780;2023-04-30T18:30:11;12.90;99.90
36790;DHT22;22740;52.182;8.780;2023-04-30T18:36:13;12.80;99.90
36790;DHT22;22740;52.182;8.780;2023-04-30T18:42:15;12.70;99.90
36790;DHT22;22740;52.182;8.780;2023-04-30T18:48:17;12.60;99.90
36790;DHT22;22740;52.182;8.780;2023-04-30T18:54:20;12.50;99.90
36790;DHT22;22740;52.182;8.780;2023-04-30T19:00:22;12.40;99.90
36790;DHT22;22740;52.182;8.780;2023-04-30T19:06:24;12.30;99.90
36790;DHT22;22740;52.182;8.780;2023-04-30T19:12:26;12.30;99.90
36790;DHT22;22740;52.182;8.780;2023-04-30T19:18:27;12.10;99.90
36790;DHT22;22740;52.182;8.780;2023-04-30T19:24:29;11.80;99.90
36790;DHT22;22740;52.182;8.780;2023-04-30T19:30:31;11.70;99.90
36790;DHT22;22740;52.182;8.780;2023-04-30T19:36:33;11.70;99.90
36790;DHT22;22740;52.182;8.780;2023-04-30T19:42:35;11.60;99.90
36790;DHT22;22740;52.182;8.780;2023-04-30T19:48:37;11.60;99.90
36790;DHT22;22740;52.182;8.780;2023-04-30T19:54:38;11.50;99.90
36790;DHT22;22740;52.182;8.780;2023-04-30T20:00:42;11.40;99.90
36790;DHT22;22740;52.182;8.780;2023-04-30T20:06:44;11.20;99.90
36790;DHT22;22740;52.182;8.780;2023-04-30T20:12:46;11.30;99.90
36790;DHT22;22740;52.182;8.780;2023-04-30T20:18:47;11.10;99.90
36790;DHT22;22740;52.182;8.780;2023-04-30T20:24:49;11.10;99.90
36790;DHT22;22740;52.182;8.780;2023-04-30T20:30:51;10.80;99.90
36790;DHT22;22740;52.182;8.780;2023-04-30T20:36:53;10.60;99.90
36790;DHT22;22740;52.182;8.780;2023-04-30T20:42:55;10.50;99.90
36790;DHT22;22740;52.182;8.780;2023-04-30T20:48:56;10.60;99.90
36790;DHT22;22740;52.182;8.780;2023-04-30T20:55:04;10.40;99.90
36790;DHT22;22740;52.182;8.780;2023-04-30T21:01:06;10.30;99.90
36790;DHT22;22740;52.182;8.780;2023-04-30T21:07:08;10.30;99.90
36790;DHT22;22740;52.182;8.780;2023-04-30T21:13:10;10.40;99.90
36790;DHT22;22740;52.182;8.780;2023-04-30T21:19:13;10.30;99.90
36790;DHT22;22740;52.182;8.780;2023-04-30T21:25:15;10.30;99.90
36790;DHT22;22740;52.182;8.780;2023-04-30T21:31:18;10.20;99.90
36790;DHT22;22740;52.182;8.780;2023-04-30T21:37:20;10.20;99.90
36790;DHT22;22740;52.182;8.780;2023-04-30T21:43:22;10.10;99.90
36790;DHT22;22740;52.182;8.780;2023-04-30T21:49:24;10.00;99.90
36790;DHT22;22740;52.182;8.780;2023-04-30T21:55:26;9.90;99.90
36790;DHT22;22740;52.182;8.780;2023-04-30T22:01:28;10.00;99.90
36790;DHT22;22740;52.182;8.780;2023-04-30T22:07:30;10.00;99.90
36790;DHT22;22740;52.182;8.780;2023-04-30T22:13:32;10.00;99.90
36790;DHT22;22740;52.182;8.780;2023-04-30T22:19:34;10.00;99.90
36790;DHT22;22740;52.182;8.780;2023-04-30T22:25:36;10.00;99.90
36790;DHT22;22740;52.182;8.780;2023-04-30T22:31:38;10.30;99.90
36790;DHT22;22740;52.182;8.780;2023-04-30T22:37:40;10.50;99.90
36790;DHT22;22740;52.182;8.780;2023-04-30T22:43:44;10.60;99.90
36790;DHT22;22740;52.182;8.780;2023-04-30T22:49:47;10.50;99.90
36790;DHT22;22740;52.182;8.780;2023-04-30T22:55:50;10.50;99.90
36790;DHT22;22740;52.182;8.780;2023-04-30T23:01:52;10.10;99.90
36790;DHT22;22740;52.182;8.780;2023-04-30T23:07:54;10.10;99.90
36790;DHT22;22740;52.182;8.780;2023-04-30T23:13:55;9.60;99.90
36790;DHT22;22740;52.182;8.780;2023-04-30T23:19:57;9.80;99.90
36790;DHT22;22740;52.182;8.780;2023-04-30T23:25:59;9.50;99.90
36790;DHT22;22740;52.182;8.780;2023-04-30T23:32:01;9.40;99.90
36790;DHT22;22740;52.182;8.780;2023-04-30T23:38:04;9.40;99.90
36790;DHT22;22740;52.182;8.780;2023-04-30T23:44:07;9.30;99.90
36790;DHT22;22740;52.182;8.780;2023-04-30T23:50:10;9.30;99.90
36790;DHT22;22740;52.182;8.780;2023-04-30T23:56:12;8.70;99.90
